Fryeburg, Maine
Current Conditions -  °F | °C
As of 9:07 AM on Monday 24 Nov 2014 (Local Time) from KIZG Reporting Station
Moderate Rain Moderate Rain  
Wind Chill: 37°   Ceiling: 300
Heat Index: 40°   Visibility: 1.5mi
Dew Point: 38°   Wind: 5mph
Humidity: 93%   Direction: 300°WNW
Pressure: 29.76"   Gusts: NA
Location:  44.02°N, 70.98°W
Report Text: KIZG 241407Z AUTO 30004KT 1 1/2SM RA BR OVC003 04/03 A2976 RMK AO2 P0006 T00440033
Loading
Personal Weather Stations






























Interactive Weather Map New forecast layout! Learn more

10-Day Weather Forecast

Advertisements
Track Severe Weather on mobile